createdAt,value
2017-10-23T00:01:58.598Z,79.70
2017-10-23T00:04:27.492Z,78.20
2017-10-23T00:06:55.679Z,78.20
2017-10-23T00:09:23.816Z,78.00
2017-10-23T00:11:51.972Z,78.40
2017-10-23T00:14:20.116Z,78.00
2017-10-23T00:16:48.255Z,77.90
2017-10-23T00:19:16.523Z,77.40
2017-10-23T00:21:44.657Z,77.30
2017-10-23T00:24:12.825Z,77.30
2017-10-23T00:26:40.970Z,77.00
2017-10-23T00:29:09.148Z,77.10
2017-10-23T00:31:37.306Z,76.80
2017-10-23T00:34:05.430Z,76.70
2017-10-23T00:36:33.710Z,76.90
2017-10-23T00:39:01.853Z,76.30
2017-10-23T00:41:29.975Z,77.70
2017-10-23T00:43:59.014Z,78.40
2017-10-23T00:46:27.910Z,78.40
2017-10-23T00:48:56.065Z,78.50
2017-10-23T00:51:24.193Z,78.50
2017-10-23T00:53:52.362Z,78.40
2017-10-23T00:56:20.523Z,79.10
2017-10-23T00:58:48.639Z,78.80
2017-10-23T01:01:16.895Z,78.40
2017-10-23T01:03:45.812Z,79.60
2017-10-23T01:06:13.973Z,79.60
2017-10-23T01:08:42.865Z,79.80
2017-10-23T01:11:11.122Z,79.80
2017-10-23T01:13:39.248Z,79.80
2017-10-23T01:16:07.449Z,80.20
2017-10-23T01:18:35.570Z,79.80
2017-10-23T01:21:03.709Z,79.80
2017-10-23T01:23:31.876Z,79.80
2017-10-23T01:26:00.050Z,79.80
2017-10-23T01:28:28.209Z,79.40
2017-10-23T01:30:56.336Z,79.90
2017-10-23T01:33:24.468Z,79.70
2017-10-23T01:35:52.740Z,79.80
2017-10-23T01:38:20.873Z,79.60
2017-10-23T01:40:49.800Z,79.50
2017-10-23T01:43:17.946Z,79.50
2017-10-23T01:45:46.210Z,79.90
2017-10-23T01:48:14.335Z,79.80
2017-10-23T01:50:42.532Z,79.70
2017-10-23T01:53:11.425Z,79.80
2017-10-23T01:55:39.554Z,79.80
2017-10-23T01:58:07.709Z,79.50
2017-10-23T02:00:35.854Z,79.70
2017-10-23T02:03:04.116Z,79.60
2017-10-23T02:05:32.253Z,79.80
2017-10-23T02:08:00.427Z,79.40
2017-10-23T02:10:28.572Z,79.50
2017-10-23T02:12:56.728Z,79.10
2017-10-23T02:15:24.886Z,79.60
2017-10-23T02:17:53.775Z,79.70
2017-10-23T02:20:22.820Z,79.90
2017-10-23T02:22:50.944Z,79.90
2017-10-23T02:25:19.205Z,80.20
2017-10-23T02:27:48.126Z,80.50
2017-10-23T02:30:16.297Z,80.50
2017-10-23T02:32:45.173Z,80.10
2017-10-23T02:35:14.073Z,80.40
2017-10-23T02:37:42.237Z,80.40
2017-10-23T02:40:10.364Z,80.20
2017-10-23T02:42:38.533Z,80.30
2017-10-23T02:45:06.701Z,80.70
2017-10-23T02:47:35.679Z,80.40
2017-10-23T02:50:06.322Z,80.00
2017-10-23T02:52:37.666Z,80.00
2017-10-23T02:55:07.287Z,80.00
2017-10-23T02:57:39.290Z,80.30
2017-10-23T03:00:10.647Z,79.80
2017-10-23T03:02:40.639Z,79.90
2017-10-23T03:05:09.301Z,80.10
2017-10-23T03:07:37.439Z,80.00
2017-10-23T03:10:05.558Z,80.00
2017-10-23T03:12:33.813Z,79.60
2017-10-23T03:15:01.974Z,79.60
2017-10-23T03:17:30.109Z,78.90
2017-10-23T03:20:06.129Z,78.60
2017-10-23T03:22:34.311Z,78.60
2017-10-23T03:25:02.465Z,78.70
2017-10-23T03:27:30.605Z,78.80
2017-10-23T03:29:58.901Z,78.70
2017-10-23T03:32:27.029Z,79.10
2017-10-23T03:34:55.936Z,78.20
2017-10-23T03:37:24.113Z,78.10
2017-10-23T03:39:52.232Z,78.10
2017-10-23T03:42:20.389Z,77.90
2017-10-23T03:44:48.510Z,77.80
2017-10-23T03:47:16.782Z,77.50
2017-10-23T03:49:44.952Z,77.70
2017-10-23T03:52:13.082Z,77.40
2017-10-23T03:54:42.018Z,77.10
2017-10-23T03:57:10.165Z,77.00
2017-10-23T03:59:38.300Z,76.90
2017-10-23T04:02:06.449Z,77.00
2017-10-23T04:04:35.479Z,77.20
2017-10-23T04:07:03.641Z,77.20
2017-10-23T04:09:31.783Z,77.10
2017-10-23T04:12:00.072Z,76.80
2017-10-23T04:14:28.956Z,77.10
2017-10-23T04:16:57.851Z,77.60
2017-10-23T04:19:26.773Z,77.70
2017-10-23T04:21:54.937Z,77.70
2017-10-23T04:24:23.066Z,77.30
2017-10-23T04:26:51.210Z,77.50
2017-10-23T04:29:19.473Z,77.60
2017-10-23T04:31:47.615Z,77.60
2017-10-23T04:34:15.781Z,77.80
2017-10-23T04:36:44.722Z,77.70
2017-10-23T04:39:12.855Z,77.70
2017-10-23T04:41:41.784Z,77.70
2017-10-23T04:44:09.908Z,77.70
2017-10-23T04:46:38.869Z,77.90
2017-10-23T04:49:07.013Z,77.90
2017-10-23T04:51:35.192Z,77.50
2017-10-23T04:54:03.344Z,77.40
2017-10-23T04:56:31.476Z,77.60
2017-10-23T04:58:59.633Z,77.70
2017-10-23T05:01:27.765Z,77.60
2017-10-23T05:03:56.030Z,77.30
2017-10-23T05:06:24.919Z,77.30
2017-10-23T05:08:53.808Z,77.70
2017-10-23T05:11:21.978Z,77.70
2017-10-23T05:13:50.917Z,77.40
2017-10-23T05:16:19.061Z,77.40
2017-10-23T05:18:47.197Z,77.60
2017-10-23T05:21:15.472Z,77.50
2017-10-23T05:23:43.621Z,77.40
2017-10-23T05:26:11.754Z,77.70
2017-10-23T05:28:39.905Z,77.20
2017-10-23T05:31:08.806Z,77.00
2017-10-23T05:33:37.736Z,77.10
2017-10-23T05:36:05.873Z,77.00
2017-10-23T05:38:34.164Z,77.00
2017-10-23T05:41:02.300Z,77.70
2017-10-23T05:43:30.432Z,77.30
2017-10-23T05:45:58.596Z,77.50
2017-10-23T05:48:26.746Z,77.20
2017-10-23T05:50:54.913Z,77.60
2017-10-23T05:53:23.800Z,77.60
2017-10-23T05:55:52.081Z,77.60
2017-10-23T05:58:20.213Z,77.50
2017-10-23T06:00:48.378Z,77.40
2017-10-23T06:03:16.517Z,77.50
2017-10-23T06:05:44.657Z,77.10
2017-10-23T06:08:13.574Z,77.80
2017-10-23T06:10:41.723Z,77.70
2017-10-23T06:13:09.966Z,77.80
2017-10-23T06:15:38.089Z,77.80
2017-10-23T06:18:06.244Z,78.10
2017-10-23T06:20:35.165Z,78.30
2017-10-23T06:23:04.107Z,78.40
2017-10-23T06:25:32.224Z,78.40
2017-10-23T06:28:00.373Z,78.20
2017-10-23T06:30:29.428Z,78.00
2017-10-23T06:32:58.316Z,78.20
2017-10-23T06:35:26.467Z,78.20
2017-10-23T06:37:54.625Z,78.30
2017-10-23T06:40:22.765Z,78.90
2017-10-23T06:42:50.932Z,78.90
2017-10-23T06:45:19.200Z,79.00
2017-10-23T06:47:47.389Z,79.40
2017-10-23T06:50:15.533Z,79.40
2017-10-23T06:52:43.689Z,79.90
2017-10-23T06:55:11.816Z,78.90
2017-10-23T06:57:40.747Z,79.30
2017-10-23T07:00:08.891Z,79.10
2017-10-23T07:02:37.938Z,79.00
2017-10-23T07:05:06.070Z,79.00
2017-10-23T07:07:34.197Z,78.90
2017-10-23T07:10:02.364Z,79.10
2017-10-23T07:12:30.494Z,79.00
2017-10-23T07:14:58.653Z,78.60
2017-10-23T07:17:27.546Z,78.90
2017-10-23T07:19:56.602Z,79.30
2017-10-23T07:22:24.731Z,79.30
2017-10-23T07:24:52.886Z,79.20
2017-10-23T07:27:21.817Z,79.00
2017-10-23T07:29:49.951Z,79.00
2017-10-23T07:32:18.085Z,79.20
2017-10-23T07:34:46.260Z,79.70
2017-10-23T07:37:14.395Z,80.30
2017-10-23T07:39:42.534Z,80.30
2017-10-23T07:42:11.585Z,79.80
2017-10-23T07:44:39.713Z,79.80
2017-10-23T07:47:07.845Z,78.80
2017-10-23T07:49:36.005Z,79.20
2017-10-23T07:52:04.132Z,78.00
2017-10-23T07:54:32.433Z,78.00
2017-10-23T07:57:00.585Z,78.30
2017-10-23T07:59:28.738Z,78.30
2017-10-23T08:01:56.888Z,78.50
2017-10-23T08:04:25.052Z,78.30
2017-10-23T08:06:53.192Z,77.40
2017-10-23T08:09:21.366Z,78.10
2017-10-23T08:11:49.506Z,78.00
2017-10-23T08:14:18.409Z,77.80
2017-10-23T08:16:47.465Z,78.20
2017-10-23T08:19:15.596Z,78.20
2017-10-23T08:21:44.526Z,78.80
2017-10-23T08:24:12.652Z,78.80
2017-10-23T08:26:40.941Z,78.80
2017-10-23T08:29:09.124Z,79.00
2017-10-23T08:31:37.263Z,77.80
2017-10-23T08:34:06.166Z,77.60
2017-10-23T08:36:34.341Z,77.60
2017-10-23T08:39:02.480Z,78.20
2017-10-23T08:41:30.665Z,78.50
2017-10-23T08:43:59.574Z,77.40
2017-10-23T08:46:27.713Z,77.10
2017-10-23T08:48:55.990Z,77.10
2017-10-23T08:51:24.125Z,76.20
2017-10-23T08:53:52.297Z,75.90
2017-10-23T08:56:20.443Z,76.40
2017-10-23T08:58:48.593Z,75.80
2017-10-23T09:01:16.860Z,76.10
2017-10-23T09:03:45.002Z,75.90
2017-10-23T09:06:13.156Z,76.40
2017-10-23T09:08:41.308Z,76.70
2017-10-23T09:11:09.428Z,75.50
2017-10-23T09:13:37.597Z,74.20
2017-10-23T09:16:05.714Z,73.60
2017-10-23T09:18:34.772Z,74.80
2017-10-23T09:21:02.897Z,74.80
2017-10-23T09:23:31.049Z,72.60
2017-10-23T09:25:59.974Z,73.60
2017-10-23T09:28:28.120Z,73.60
2017-10-23T09:30:57.061Z,72.50
2017-10-23T09:33:25.201Z,72.50
2017-10-23T09:35:53.482Z,73.30
2017-10-23T09:38:21.633Z,72.70
2017-10-23T09:40:50.553Z,72.50
2017-10-23T09:43:18.734Z,72.40
2017-10-23T09:45:46.881Z,71.20
2017-10-23T09:48:15.837Z,71.10
2017-10-23T09:50:43.978Z,71.10
2017-10-23T09:53:12.247Z,71.10
2017-10-23T09:55:40.393Z,70.00
2017-10-23T09:58:08.553Z,71.00
2017-10-23T10:00:37.485Z,71.90
2017-10-23T10:03:05.627Z,71.90
2017-10-23T10:05:33.793Z,71.40
2017-10-23T10:08:02.689Z,71.80
2017-10-23T10:10:30.835Z,71.80
2017-10-23T10:12:59.002Z,72.10
2017-10-23T10:15:27.145Z,72.30
2017-10-23T10:17:55.310Z,71.50
2017-10-23T10:20:23.453Z,71.60
2017-10-23T10:22:52.385Z,71.00
2017-10-23T10:25:20.525Z,71.00
2017-10-23T10:27:49.601Z,71.30
2017-10-23T10:30:17.746Z,71.30
2017-10-23T10:32:45.918Z,71.70
2017-10-23T10:35:14.065Z,72.00
2017-10-23T10:37:42.181Z,71.00
2017-10-23T10:40:10.357Z,71.00
2017-10-23T10:42:38.499Z,71.30
2017-10-23T10:45:06.764Z,71.70
2017-10-23T10:47:34.904Z,70.40
2017-10-23T10:50:03.840Z,70.90
2017-10-23T10:52:31.972Z,70.90
2017-10-23T10:55:00.136Z,70.60
2017-10-23T10:57:29.031Z,70.80
2017-10-23T10:59:57.313Z,70.80
2017-10-23T11:02:25.500Z,71.40
2017-10-23T11:04:53.637Z,70.70
2017-10-23T11:07:21.807Z,70.90
2017-10-23T11:09:49.941Z,70.20
2017-10-23T11:12:18.110Z,70.20
2017-10-23T11:14:46.244Z,70.50
2017-10-23T11:17:15.142Z,69.10
2017-10-23T11:19:44.189Z,68.70
2017-10-23T11:22:12.326Z,68.60
2017-10-23T11:24:40.490Z,68.70
2017-10-23T11:27:08.645Z,69.20
2017-10-23T11:29:36.785Z,68.90
2017-10-23T11:32:04.949Z,69.60
2017-10-23T11:34:33.212Z,68.40
2017-10-23T11:37:01.354Z,69.20
2017-10-23T11:39:30.695Z,69.70
2017-10-23T11:41:58.823Z,69.60
2017-10-23T11:44:27.724Z,67.90
2017-10-23T11:46:55.925Z,67.80
2017-10-23T11:49:24.049Z,68.20
2017-10-23T11:51:52.331Z,67.40
2017-10-23T11:54:21.229Z,67.60
2017-10-23T11:56:50.173Z,68.00
2017-10-23T11:59:18.323Z,68.00
2017-10-23T12:01:46.471Z,67.30
2017-10-23T12:04:15.386Z,67.00
2017-10-23T12:06:43.529Z,67.00
2017-10-23T12:09:12.593Z,66.60
2017-10-23T12:11:40.743Z,66.50
2017-10-23T12:14:08.886Z,65.10
2017-10-23T12:16:37.063Z,66.10
2017-10-23T12:19:05.192Z,66.00
2017-10-23T12:21:33.356Z,66.30
2017-10-23T12:24:01.531Z,63.90
2017-10-23T12:26:29.710Z,64.90
2017-10-23T12:28:57.960Z,65.60
2017-10-23T12:31:33.827Z,64.20
2017-10-23T12:34:01.999Z,65.30
2017-10-23T12:36:30.149Z,65.00
2017-10-23T12:38:58.291Z,64.30
2017-10-23T12:41:26.442Z,64.50
2017-10-23T12:43:54.588Z,63.90
2017-10-23T12:46:22.752Z,63.10
2017-10-23T12:48:50.921Z,61.90
2017-10-23T12:51:19.074Z,62.90
2017-10-23T12:53:47.209Z,63.00
2017-10-23T12:56:15.854Z,63.10
2017-10-23T12:58:43.991Z,62.70
2017-10-23T13:01:12.147Z,63.90
2017-10-23T13:03:40.417Z,64.60
2017-10-23T13:06:08.536Z,64.60
2017-10-23T13:08:36.715Z,63.40
2017-10-23T13:11:04.851Z,63.30
2017-10-23T13:13:33.798Z,63.90
2017-10-23T13:16:01.970Z,63.80
2017-10-23T13:18:30.110Z,63.70
2017-10-23T13:21:05.463Z,63.80
2017-10-23T13:23:33.746Z,64.60
2017-10-23T13:26:01.942Z,65.80
2017-10-23T13:28:30.085Z,66.60
2017-10-23T13:30:58.249Z,66.90
2017-10-23T13:33:26.421Z,67.30
2017-10-23T13:35:54.604Z,66.60
2017-10-23T13:38:22.753Z,66.30
2017-10-23T13:40:51.711Z,67.80
2017-10-23T13:43:19.860Z,67.70
2017-10-23T13:45:48.020Z,66.90
2017-10-23T13:48:16.289Z,67.70
2017-10-23T13:50:44.446Z,67.20
2017-10-23T13:53:12.721Z,67.20
2017-10-23T13:55:40.883Z,67.40
2017-10-23T13:58:09.023Z,67.80
2017-10-23T14:00:37.195Z,67.10
2017-10-23T14:03:05.333Z,67.20
2017-10-23T14:05:33.526Z,66.20
2017-10-23T14:08:01.724Z,66.60
2017-10-23T14:10:29.886Z,65.40
2017-10-23T14:12:58.183Z,64.70
2017-10-23T14:15:26.309Z,65.60
2017-10-23T14:17:54.480Z,64.50
2017-10-23T14:20:22.642Z,64.50
2017-10-23T14:22:50.858Z,65.00
2017-10-23T14:25:19.130Z,64.60
2017-10-23T14:27:47.312Z,64.20
2017-10-23T14:30:15.502Z,64.20
2017-10-23T14:32:43.647Z,64.00
2017-10-23T14:35:11.826Z,64.00
2017-10-23T14:37:39.965Z,64.60
2017-10-23T14:40:08.248Z,65.00
2017-10-23T14:42:36.418Z,65.30
2017-10-23T14:45:04.553Z,65.80
2017-10-23T14:47:32.708Z,66.00
2017-10-23T14:50:00.877Z,65.90
2017-10-23T14:52:29.076Z,66.10
2017-10-23T14:54:57.223Z,66.50
2017-10-23T14:57:25.522Z,66.50
2017-10-23T14:59:53.641Z,67.00
2017-10-23T15:02:21.830Z,67.30
2017-10-23T15:04:49.997Z,68.00
2017-10-23T15:07:18.130Z,68.00
2017-10-23T15:09:46.273Z,68.10
2017-10-23T15:12:14.464Z,68.30
2017-10-23T15:14:42.640Z,67.80
2017-10-23T15:17:11.598Z,68.20
2017-10-23T15:19:39.851Z,68.10
2017-10-23T15:22:08.023Z,68.10
2017-10-23T15:24:36.159Z,68.00
2017-10-23T15:27:04.390Z,67.80
2017-10-23T15:29:33.498Z,67.60
2017-10-23T15:32:01.634Z,67.60
2017-10-23T15:34:29.820Z,68.20
2017-10-23T15:36:57.961Z,68.30
2017-10-23T15:39:26.910Z,68.00
2017-10-23T15:41:55.052Z,68.00
2017-10-23T15:44:23.189Z,68.30
2017-10-23T15:46:52.303Z,68.80
2017-10-23T15:49:20.443Z,68.90
2017-10-23T15:51:48.562Z,68.20
2017-10-23T15:54:16.760Z,68.40
2017-10-23T15:56:44.894Z,68.80
2017-10-23T15:59:13.020Z,69.00
2017-10-23T16:01:41.361Z,68.50
2017-10-23T16:04:09.544Z,68.30
2017-10-23T16:06:37.685Z,68.00
2017-10-23T16:09:05.830Z,68.50
2017-10-23T16:11:34.117Z,69.30
2017-10-23T16:14:02.258Z,69.00
2017-10-23T16:16:30.438Z,69.30
2017-10-23T16:18:58.597Z,68.80
2017-10-23T16:21:26.776Z,69.20
2017-10-23T16:36:47.561Z,68.60
2017-10-23T16:39:15.709Z,68.60
2017-10-23T16:41:43.872Z,68.90
2017-10-23T16:44:12.008Z,69.10
2017-10-23T16:46:40.272Z,69.20
2017-10-23T16:49:08.420Z,69.80
2017-10-23T16:51:36.635Z,69.70
2017-10-23T16:54:04.806Z,69.70
2017-10-23T16:56:32.968Z,69.90
2017-10-23T16:59:01.120Z,70.20
2017-10-23T17:01:29.287Z,70.80
2017-10-23T17:03:57.529Z,70.90
2017-10-23T17:06:26.440Z,71.10
2017-10-23T17:08:54.740Z,71.10
2017-10-23T17:11:22.871Z,71.20
2017-10-23T17:13:51.004Z,71.10
2017-10-23T17:16:19.197Z,71.10
2017-10-23T17:18:47.334Z,70.80
2017-10-23T17:21:15.539Z,71.00
2017-10-23T17:23:43.689Z,71.10
2017-10-23T17:26:11.859Z,71.40
2017-10-23T17:28:40.056Z,71.70
2017-10-23T17:31:08.199Z,71.80
2017-10-23T17:33:36.339Z,71.90
2017-10-23T17:36:04.501Z,72.10
2017-10-23T17:38:33.426Z,71.50
2017-10-23T17:41:01.576Z,71.50
2017-10-23T17:43:29.762Z,71.90
2017-10-23T17:45:57.899Z,72.20
2017-10-23T17:48:26.938Z,72.70
2017-10-23T17:50:55.079Z,72.40
2017-10-23T17:53:24.031Z,72.10
2017-10-23T17:55:52.168Z,72.10
2017-10-23T17:58:20.316Z,72.20
2017-10-23T18:00:49.493Z,72.30
2017-10-23T18:03:18.442Z,72.70
2017-10-23T18:05:46.762Z,72.70
2017-10-23T18:08:15.044Z,72.90
2017-10-23T18:10:43.217Z,72.90
2017-10-23T18:13:11.370Z,73.40
2017-10-23T18:15:39.554Z,73.50
2017-10-23T18:18:07.747Z,73.40
2017-10-23T18:20:35.886Z,73.50
2017-10-23T18:23:04.167Z,74.30
2017-10-23T18:25:32.332Z,73.50
2017-10-23T18:28:00.510Z,73.70
2017-10-23T18:30:28.677Z,73.50
2017-10-23T18:32:56.822Z,73.40
2017-10-23T18:35:24.977Z,73.40
2017-10-23T18:37:53.997Z,73.70
2017-10-23T18:40:22.169Z,73.70
2017-10-23T18:42:50.323Z,73.50
2017-10-23T18:45:18.538Z,73.40
2017-10-23T18:47:46.737Z,74.00
2017-10-23T18:50:14.908Z,73.80
2017-10-23T18:52:43.028Z,74.00
2017-10-23T18:55:11.165Z,73.90
2017-10-23T18:57:39.367Z,73.90
2017-10-23T19:00:07.560Z,74.20
2017-10-23T19:02:35.768Z,73.80
2017-10-23T19:05:03.910Z,73.90
2017-10-23T19:07:32.063Z,73.20
2017-10-23T19:10:00.274Z,73.10
2017-10-23T19:12:28.407Z,73.20
2017-10-23T19:14:56.555Z,73.30
2017-10-23T19:17:24.716Z,73.20
2017-10-23T19:19:52.875Z,73.30
2017-10-23T19:22:21.055Z,73.60
2017-10-23T19:24:49.210Z,73.40
2017-10-23T19:27:17.404Z,73.60
2017-10-23T19:29:45.560Z,73.80
2017-10-23T19:32:13.691Z,73.90
2017-10-23T19:34:41.870Z,73.90
2017-10-23T19:37:10.006Z,74.00
2017-10-23T19:39:38.277Z,74.10
2017-10-23T19:42:06.446Z,74.20
2017-10-23T19:44:34.652Z,74.30
2017-10-23T19:47:03.565Z,74.40
2017-10-23T19:49:31.741Z,74.40
2017-10-23T19:51:59.891Z,74.60
2017-10-23T19:54:28.797Z,75.60
2017-10-23T19:56:57.010Z,74.90
2017-10-23T19:59:25.136Z,74.90
2017-10-23T20:01:53.339Z,74.80
2017-10-23T20:04:21.483Z,74.90
2017-10-23T20:06:49.662Z,75.10
2017-10-23T20:09:17.813Z,75.00
2017-10-23T20:11:46.001Z,75.00
2017-10-23T20:14:14.948Z,75.40
2017-10-23T20:16:43.094Z,75.40
2017-10-23T20:19:11.371Z,75.90
2017-10-23T20:21:39.518Z,75.50
2017-10-23T20:24:07.690Z,75.20
2017-10-23T20:26:36.600Z,74.80
2017-10-23T20:29:04.877Z,74.90
2017-10-23T20:31:33.051Z,74.80
2017-10-23T20:34:01.224Z,74.80
2017-10-23T20:36:29.370Z,74.70
2017-10-23T20:38:58.304Z,75.10
2017-10-23T20:41:26.470Z,75.10
2017-10-23T20:43:54.654Z,75.40
2017-10-23T20:46:22.790Z,75.50
2017-10-23T20:48:51.699Z,75.60
2017-10-23T20:51:19.982Z,75.60
2017-10-23T20:53:48.899Z,75.60
2017-10-23T20:56:17.056Z,75.60
2017-10-23T20:58:45.199Z,76.20
2017-10-23T21:01:13.387Z,76.50
2017-10-23T21:03:41.510Z,76.40
2017-10-23T21:06:09.657Z,76.10
2017-10-23T21:08:37.974Z,76.40
2017-10-23T21:11:06.105Z,76.50
2017-10-23T21:13:34.297Z,76.50
2017-10-23T21:16:02.445Z,76.50
2017-10-23T21:18:30.635Z,76.70
2017-10-23T21:20:58.822Z,76.80
2017-10-23T21:23:27.104Z,76.90
2017-10-23T21:25:55.249Z,76.50
2017-10-23T21:28:23.393Z,77.40
2017-10-23T21:30:51.557Z,76.50
2017-10-23T21:33:19.730Z,76.40
2017-10-23T21:35:48.665Z,76.00
2017-10-23T21:38:16.798Z,75.90
2017-10-23T21:40:44.936Z,76.00
2017-10-23T21:43:13.216Z,76.10
2017-10-23T21:45:41.377Z,76.40
2017-10-23T21:48:09.542Z,76.50
2017-10-23T21:50:37.673Z,76.40
2017-10-23T21:53:05.812Z,76.60
2017-10-23T21:55:33.976Z,76.60
2017-10-23T21:58:02.118Z,76.60
2017-10-23T22:00:30.380Z,76.60
2017-10-23T22:02:58.548Z,76.90
2017-10-23T22:05:26.698Z,77.00
2017-10-23T22:07:55.593Z,76.80
2017-10-23T22:10:23.760Z,76.60
2017-10-23T22:12:52.696Z,76.90
2017-10-23T22:15:20.821Z,76.90
2017-10-23T22:17:49.858Z,76.50
2017-10-23T22:20:17.987Z,76.50
2017-10-23T22:22:46.922Z,76.50
2017-10-23T22:25:15.053Z,76.50
2017-10-23T22:27:44.054Z,76.80
2017-10-23T22:30:12.956Z,76.80
2017-10-23T22:32:41.089Z,76.70
2017-10-23T22:35:09.366Z,76.90
2017-10-23T22:37:37.494Z,77.00
2017-10-23T22:40:05.654Z,77.10
2017-10-23T22:42:33.805Z,76.90
2017-10-23T22:45:01.988Z,76.90
2017-10-23T22:47:30.877Z,77.00
2017-10-23T22:49:59.778Z,77.20
2017-10-23T22:52:28.057Z,77.10
2017-10-23T22:54:56.188Z,77.10
2017-10-23T22:57:24.346Z,77.50
2017-10-23T22:59:52.494Z,77.40
2017-10-23T23:02:20.663Z,77.40
2017-10-23T23:04:48.795Z,77.60
2017-10-23T23:07:17.083Z,77.80
2017-10-23T23:09:45.990Z,77.80
2017-10-23T23:12:14.116Z,77.80
2017-10-23T23:14:42.272Z,77.60
2017-10-23T23:17:10.410Z,77.60
2017-10-23T23:19:38.563Z,77.10
2017-10-23T23:22:06.697Z,77.10
2017-10-23T23:24:35.750Z,77.90
2017-10-23T23:27:03.904Z,76.90
2017-10-23T23:29:32.800Z,76.70
2017-10-23T23:32:00.972Z,76.70
2017-10-23T23:34:29.881Z,76.50
2017-10-23T23:36:58.037Z,76.40
2017-10-23T23:39:26.943Z,76.10
2017-10-23T23:41:55.138Z,76.10
2017-10-23T23:44:23.271Z,76.40
2017-10-23T23:46:52.188Z,76.50
2017-10-23T23:49:20.356Z,76.50
2017-10-23T23:51:48.483Z,76.30
2017-10-23T23:54:16.650Z,76.10
2017-10-23T23:56:44.805Z,75.90
2017-10-23T23:59:12.937Z,76.00
